createdAt,value
2023-01-06T00:01:13.868Z,10.00
2023-01-06T00:03:40.711Z,10.00
2023-01-06T00:06:10.063Z,10.00
2023-01-06T00:08:37.850Z,10.00
2023-01-06T00:11:06.595Z,10.00
2023-01-06T00:13:33.712Z,10.00
2023-01-06T00:16:06.730Z,10.00
2023-01-06T00:18:34.254Z,10.00
2023-01-06T00:21:01.996Z,10.10
2023-01-06T00:23:32.026Z,10.10
2023-01-06T00:25:58.939Z,10.10
2023-01-06T00:28:25.865Z,10.10
2023-01-06T00:30:53.062Z,10.10
2023-01-06T00:33:19.969Z,10.10
2023-01-06T00:35:46.788Z,10.10
2023-01-06T00:38:13.652Z,10.20
2023-01-06T00:40:44.321Z,10.20
2023-01-06T00:43:11.188Z,10.20
2023-01-06T00:45:37.981Z,10.20
2023-01-06T00:48:07.529Z,10.20
2023-01-06T00:50:34.415Z,10.20
2023-01-06T00:53:01.278Z,10.30
2023-01-06T00:55:29.861Z,10.30
2023-01-06T00:57:56.636Z,10.30
2023-01-06T01:00:23.668Z,10.30
2023-01-06T01:02:50.655Z,10.30
2023-01-06T01:05:17.551Z,10.30
2023-01-06T01:07:44.462Z,10.30
2023-01-06T01:10:11.429Z,10.20
2023-01-06T01:12:38.497Z,10.20
2023-01-06T01:15:05.716Z,10.20
2023-01-06T01:17:32.909Z,10.20
2023-01-06T01:20:00.983Z,10.20
2023-01-06T01:22:29.726Z,10.20
2023-01-06T01:24:56.878Z,10.20
2023-01-06T01:27:23.782Z,10.20
2023-01-06T01:29:50.600Z,10.20
2023-01-06T01:32:17.433Z,10.20
2023-01-06T01:34:44.461Z,10.10
2023-01-06T01:37:11.264Z,10.20
2023-01-06T01:39:38.151Z,10.20
2023-01-06T01:42:06.875Z,10.20
2023-01-06T01:44:58.090Z,10.20
2023-01-06T01:47:38.036Z,10.10
2023-01-06T01:50:12.076Z,10.20
2023-01-06T01:52:41.167Z,10.20
2023-01-06T01:55:09.301Z,10.20
2023-01-06T01:57:44.364Z,10.10
2023-01-06T02:00:11.563Z,10.10
2023-01-06T02:02:39.117Z,10.10
2023-01-06T02:05:07.116Z,10.10
2023-01-06T02:07:34.235Z,10.10
2023-01-06T02:10:17.273Z,10.10
2023-01-06T02:12:47.460Z,10.10
2023-01-06T02:15:23.916Z,10.10
2023-01-06T02:18:23.013Z,10.00
2023-01-06T02:21:15.825Z,10.10
2023-01-06T02:23:45.442Z,10.00
2023-01-06T02:26:43.173Z,10.10
2023-01-06T02:29:12.695Z,10.10
2023-01-06T02:31:53.176Z,10.10
2023-01-06T02:34:19.992Z,10.10
2023-01-06T02:37:14.915Z,10.10
2023-01-06T02:40:09.996Z,10.10
2023-01-06T02:42:42.728Z,10.10
2023-01-06T02:45:18.587Z,10.10
2023-01-06T02:47:54.583Z,10.10
2023-01-06T02:50:42.620Z,10.10
2023-01-06T02:53:24.621Z,10.20
2023-01-06T02:55:57.594Z,10.20
2023-01-06T02:58:42.522Z,10.20
2023-01-06T03:01:26.566Z,10.20
2023-01-06T03:03:56.688Z,10.20
2023-01-06T03:06:29.396Z,10.20
2023-01-06T03:08:57.494Z,10.20
2023-01-06T03:11:30.561Z,10.20
2023-01-06T03:14:05.044Z,10.20
2023-01-06T03:16:31.841Z,10.20
2023-01-06T03:18:58.801Z,10.20
2023-01-06T03:21:30.088Z,10.20
2023-01-06T03:23:57.508Z,10.20
2023-01-06T03:26:25.747Z,10.20
2023-01-06T03:28:52.632Z,10.20
2023-01-06T03:31:47.242Z,10.20
2023-01-06T03:34:44.935Z,10.20
2023-01-06T03:37:53.238Z,10.20
2023-01-06T03:40:35.662Z,10.10
2023-01-06T03:43:12.332Z,10.10
2023-01-06T03:45:52.318Z,10.10
2023-01-06T03:48:51.037Z,10.10
2023-01-06T03:51:32.998Z,10.00
2023-01-06T03:54:05.966Z,10.00
2023-01-06T03:56:42.719Z,10.00
2023-01-06T03:59:21.227Z,10.00
2023-01-06T04:01:49.185Z,10.10
2023-01-06T04:04:18.032Z,10.00
2023-01-06T04:06:52.468Z,10.10
2023-01-06T04:09:19.380Z,10.10
2023-01-06T04:12:04.581Z,10.10
2023-01-06T04:14:31.392Z,10.10
2023-01-06T04:16:58.254Z,10.10
2023-01-06T04:19:25.088Z,10.10
2023-01-06T04:21:51.877Z,10.10
2023-01-06T04:24:18.648Z,10.00
2023-01-06T04:26:45.433Z,10.10
2023-01-06T04:29:12.282Z,10.10
2023-01-06T04:31:39.144Z,10.10
2023-01-06T04:34:06.085Z,10.10
2023-01-06T04:36:32.932Z,10.10
2023-01-06T04:38:59.863Z,10.10
2023-01-06T04:41:26.704Z,10.10
2023-01-06T04:43:53.559Z,10.10
2023-01-06T04:46:20.341Z,10.10
2023-01-06T04:48:47.149Z,10.10
2023-01-06T04:51:13.970Z,10.10
2023-01-06T04:53:42.093Z,10.10
2023-01-06T04:56:11.583Z,10.10
2023-01-06T04:58:38.680Z,10.10
2023-01-06T05:01:08.716Z,10.10
2023-01-06T05:03:36.336Z,10.10
2023-01-06T05:06:11.713Z,10.10
2023-01-06T05:08:40.737Z,10.10
2023-01-06T05:11:16.893Z,10.10
2023-01-06T05:13:44.232Z,10.00
2023-01-06T05:16:16.662Z,10.10
2023-01-06T05:18:43.577Z,10.10
2023-01-06T05:21:10.404Z,10.10
2023-01-06T05:23:38.191Z,10.10
2023-01-06T05:26:05.951Z,10.10
2023-01-06T05:28:33.043Z,10.10
2023-01-06T05:31:04.154Z,10.10
2023-01-06T05:33:34.401Z,10.10
2023-01-06T05:36:03.528Z,10.10
2023-01-06T05:38:31.237Z,10.10
2023-01-06T05:40:59.342Z,10.10
2023-01-06T05:43:27.514Z,10.10
2023-01-06T05:45:55.114Z,10.10
2023-01-06T05:48:26.215Z,10.10
2023-01-06T05:50:53.458Z,10.20
2023-01-06T05:53:20.213Z,10.20
2023-01-06T05:55:47.072Z,10.20
2023-01-06T05:58:13.820Z,10.20
2023-01-06T06:00:40.573Z,10.20
2023-01-06T06:03:07.402Z,10.20
2023-01-06T06:05:34.248Z,10.20
2023-01-06T06:08:01.184Z,10.20
2023-01-06T06:10:27.960Z,10.20
2023-01-06T06:12:54.757Z,10.20
2023-01-06T06:15:21.638Z,10.20
2023-01-06T06:17:48.524Z,10.20
2023-01-06T06:20:15.329Z,10.20
2023-01-06T06:22:42.081Z,10.20
2023-01-06T06:25:09.268Z,10.20
2023-01-06T06:27:38.526Z,10.20
2023-01-06T06:30:08.887Z,10.30
2023-01-06T06:32:35.716Z,10.30
2023-01-06T06:35:02.540Z,10.20
2023-01-06T06:37:29.392Z,10.20
2023-01-06T06:39:56.241Z,10.20
2023-01-06T06:42:24.083Z,10.10
2023-01-06T06:44:52.240Z,10.10
2023-01-06T06:47:19.146Z,10.10
2023-01-06T06:49:45.966Z,10.10
2023-01-06T06:52:16.562Z,10.00
2023-01-06T06:54:43.400Z,10.00
2023-01-06T06:57:10.235Z,10.00
2023-01-06T06:59:37.099Z,9.90
2023-01-06T07:02:04.098Z,9.90
2023-01-06T07:04:30.931Z,9.90
2023-01-06T07:06:57.875Z,9.80
2023-01-06T07:09:24.702Z,9.70
2023-01-06T07:12:17.395Z,9.70
2023-01-06T07:14:44.486Z,9.70
2023-01-06T07:17:11.258Z,9.70
2023-01-06T07:19:38.115Z,9.60
2023-01-06T07:22:04.960Z,9.60
2023-01-06T07:24:31.809Z,9.60
2023-01-06T07:26:58.619Z,9.60
2023-01-06T07:29:25.476Z,9.60
2023-01-06T07:31:52.363Z,9.50
2023-01-06T07:34:19.140Z,9.50
2023-01-06T07:36:46.049Z,9.50
2023-01-06T07:39:12.869Z,9.50
2023-01-06T07:41:39.698Z,9.50
2023-01-06T07:44:06.473Z,9.50
2023-01-06T07:46:33.302Z,9.50
2023-01-06T07:49:00.154Z,9.50
2023-01-06T07:51:26.940Z,9.40
2023-01-06T07:53:53.887Z,9.50
2023-01-06T07:56:22.108Z,9.50
2023-01-06T07:58:48.977Z,9.50
2023-01-06T08:01:16.175Z,9.50
2023-01-06T08:03:43.316Z,9.50
2023-01-06T08:06:11.888Z,9.50
2023-01-06T08:08:40.419Z,9.50
2023-01-06T08:11:10.244Z,9.50
2023-01-06T08:13:37.616Z,9.50
2023-01-06T08:16:09.428Z,9.50
2023-01-06T08:18:36.589Z,9.60
2023-01-06T08:21:06.047Z,9.50
2023-01-06T08:23:33.651Z,9.60
2023-01-06T08:26:06.026Z,9.50
2023-01-06T08:28:33.823Z,9.60
2023-01-06T08:31:01.279Z,9.60
2023-01-06T08:33:29.035Z,9.60
2023-01-06T08:36:00.242Z,9.60
2023-01-06T08:38:27.735Z,9.60
2023-01-06T08:40:56.357Z,9.60
2023-01-06T08:43:24.060Z,9.60
2023-01-06T08:45:51.683Z,9.60
2023-01-06T08:48:18.590Z,9.60
2023-01-06T08:50:45.473Z,9.50
2023-01-06T08:53:13.157Z,9.50
2023-01-06T08:55:41.749Z,9.50
2023-01-06T08:58:09.799Z,9.40
2023-01-06T09:00:39.562Z,9.30
2023-01-06T09:03:06.730Z,9.30
2023-01-06T09:05:33.682Z,9.20
2023-01-06T09:08:00.501Z,9.20
2023-01-06T09:10:27.462Z,9.10
2023-01-06T09:12:54.589Z,9.10
2023-01-06T09:15:21.499Z,9.00
2023-01-06T09:17:48.264Z,8.90
2023-01-06T09:20:15.617Z,8.90
2023-01-06T09:22:55.987Z,8.90
2023-01-06T09:25:22.794Z,8.80
2023-01-06T09:27:49.683Z,8.80
2023-01-06T09:30:16.870Z,8.80
2023-01-06T09:32:43.801Z,8.80
2023-01-06T09:35:11.130Z,8.70
2023-01-06T09:37:37.994Z,8.70
2023-01-06T09:40:05.455Z,8.70
2023-01-06T09:43:15.662Z,8.70
2023-01-06T09:45:51.901Z,8.70
2023-01-06T09:48:25.549Z,8.70
2023-01-06T09:51:01.296Z,8.60
2023-01-06T09:53:43.751Z,8.70
2023-01-06T09:56:19.808Z,8.70
2023-01-06T09:59:08.564Z,8.60
2023-01-06T10:01:45.252Z,8.70
2023-01-06T10:04:35.537Z,8.70
2023-01-06T10:07:05.139Z,8.70
2023-01-06T10:09:50.243Z,8.80
2023-01-06T10:12:50.417Z,8.80
2023-01-06T10:15:35.863Z,8.80
2023-01-06T10:18:17.620Z,8.90
2023-01-06T10:21:19.758Z,8.80
2023-01-06T10:24:07.069Z,8.80
2023-01-06T10:26:45.259Z,8.80
2023-01-06T10:29:20.310Z,8.80
2023-01-06T10:31:48.998Z,8.80
2023-01-06T10:34:27.370Z,8.80
2023-01-06T10:37:20.425Z,8.80
2023-01-06T10:40:00.719Z,8.80
2023-01-06T10:42:57.388Z,8.90
2023-01-06T10:45:46.494Z,8.90
2023-01-06T10:48:15.292Z,8.90
2023-01-06T10:50:42.580Z,8.90
2023-01-06T10:53:13.736Z,8.90
2023-01-06T10:55:46.627Z,8.90
2023-01-06T10:58:42.705Z,9.00
2023-01-06T11:01:18.004Z,9.00
2023-01-06T11:03:45.786Z,9.10
2023-01-06T11:06:30.306Z,9.20
2023-01-06T11:08:58.279Z,9.30
2023-01-06T11:11:48.653Z,9.40
2023-01-06T11:14:20.985Z,9.50
2023-01-06T11:17:03.133Z,9.60
2023-01-06T11:19:40.558Z,9.60
2023-01-06T11:24:57.989Z,9.50
2023-01-06T11:27:24.948Z,9.50
2023-01-06T11:29:51.791Z,9.50
2023-01-06T11:32:30.597Z,9.50
2023-01-06T11:35:00.652Z,9.50
2023-01-06T11:37:40.315Z,9.50
2023-01-06T11:40:33.715Z,9.50
2023-01-06T11:43:13.875Z,9.40
2023-01-06T11:45:40.724Z,9.40
2023-01-06T11:48:25.697Z,9.40
2023-01-06T11:50:56.633Z,9.40
2023-01-06T11:53:26.813Z,9.30
2023-01-06T11:56:13.629Z,9.40
2023-01-06T11:59:04.574Z,9.50
2023-01-06T12:02:00.784Z,9.50
2023-01-06T12:04:43.068Z,9.50
2023-01-06T12:07:18.320Z,9.50
2023-01-06T12:09:47.038Z,9.40
2023-01-06T12:12:21.911Z,9.40
2023-01-06T12:14:49.156Z,9.40
2023-01-06T12:17:43.243Z,9.40
2023-01-06T12:20:13.585Z,9.50
2023-01-06T12:23:38.868Z,9.50
2023-01-06T12:26:15.586Z,9.50
2023-01-06T12:28:45.770Z,9.40
2023-01-06T12:31:28.350Z,9.40
2023-01-06T12:34:11.468Z,9.50
2023-01-06T12:36:58.567Z,9.40
2023-01-06T12:39:42.098Z,9.50
2023-01-06T12:42:41.175Z,9.50
2023-01-06T12:45:41.142Z,9.50
2023-01-06T12:48:36.486Z,9.50
2023-01-06T12:51:15.284Z,9.50
2023-01-06T12:53:45.773Z,9.60
2023-01-06T12:56:30.345Z,9.60
2023-01-06T12:58:57.219Z,9.70
2023-01-06T13:01:55.914Z,9.70
2023-01-06T13:04:48.104Z,9.70
2023-01-06T13:07:45.480Z,9.80
2023-01-06T13:10:48.635Z,9.80
2023-01-06T13:13:56.102Z,9.80
2023-01-06T13:16:47.331Z,9.80
2023-01-06T13:19:35.474Z,9.80
2023-01-06T13:22:06.850Z,9.70
2023-01-06T13:25:12.083Z,9.70
2023-01-06T13:27:48.985Z,9.60
2023-01-06T13:30:35.716Z,9.60
2023-01-06T13:33:17.068Z,9.60
2023-01-06T13:36:14.621Z,9.60
2023-01-06T13:39:12.011Z,9.60
2023-01-06T13:41:41.110Z,9.60
2023-01-06T13:44:18.056Z,9.60
2023-01-06T13:46:47.262Z,9.50
2023-01-06T13:49:15.150Z,9.60
2023-01-06T13:51:44.271Z,9.50
2023-01-06T13:54:39.251Z,9.50
2023-01-06T13:57:27.575Z,9.50
2023-01-06T14:00:05.813Z,9.40
2023-01-06T14:02:36.036Z,9.40
2023-01-06T14:05:19.875Z,9.40
2023-01-06T14:08:04.509Z,9.30
2023-01-06T14:10:41.485Z,9.30
2023-01-06T14:13:24.317Z,9.30
2023-01-06T14:16:10.986Z,9.20
2023-01-06T14:18:44.674Z,9.20
2023-01-06T14:21:14.480Z,9.20
2023-01-06T14:24:01.737Z,9.20
2023-01-06T14:27:04.957Z,9.10
2023-01-06T14:29:43.846Z,9.20
2023-01-06T14:32:19.489Z,9.10
2023-01-06T14:34:52.458Z,9.10
2023-01-06T14:37:23.654Z,9.10
2023-01-06T14:39:53.493Z,9.00
2023-01-06T14:42:34.856Z,9.00
2023-01-06T14:45:07.137Z,8.90
2023-01-06T14:47:45.985Z,8.90
2023-01-06T14:50:46.931Z,8.80
2023-01-06T14:53:14.064Z,8.80
2023-01-06T14:55:46.099Z,8.80
2023-01-06T14:58:36.892Z,8.70
2023-01-06T15:01:05.747Z,8.70
2023-01-06T15:03:34.654Z,8.70
2023-01-06T15:06:12.068Z,8.70
2023-01-06T15:08:39.044Z,8.60
2023-01-06T15:11:33.434Z,8.60
2023-01-06T15:14:00.312Z,8.60
2023-01-06T15:16:39.460Z,8.50
2023-01-06T15:19:08.328Z,8.40
2023-01-06T15:21:44.243Z,8.40
2023-01-06T15:24:31.749Z,8.30
2023-01-06T15:27:08.149Z,8.30
2023-01-06T15:29:35.593Z,8.20
2023-01-06T15:32:04.565Z,8.10
2023-01-06T15:34:39.497Z,8.10
2023-01-06T15:37:14.432Z,8.00
2023-01-06T15:39:42.680Z,8.00
2023-01-06T15:42:12.809Z,7.90
2023-01-06T15:44:53.303Z,7.90
2023-01-06T15:47:36.391Z,7.80
2023-01-06T15:50:07.741Z,7.80
2023-01-06T15:52:59.890Z,7.70
2023-01-06T15:55:49.462Z,7.70
2023-01-06T15:58:24.274Z,7.70
2023-01-06T16:01:06.744Z,7.60
2023-01-06T16:03:39.230Z,7.60
2023-01-06T16:06:14.360Z,7.60
2023-01-06T16:08:47.938Z,7.50
2023-01-06T16:12:04.522Z,7.50
2023-01-06T16:14:52.162Z,7.40
2023-01-06T16:17:31.654Z,7.40
2023-01-06T16:20:22.088Z,7.30
2023-01-06T16:22:53.859Z,7.20
2023-01-06T16:25:41.869Z,7.20
2023-01-06T16:28:20.727Z,7.20
2023-01-06T16:31:32.935Z,7.20
2023-01-06T16:34:19.086Z,7.20
2023-01-06T16:36:46.347Z,7.20
2023-01-06T16:39:13.294Z,7.20
2023-01-06T16:42:00.261Z,7.10
2023-01-06T16:45:17.185Z,7.20
2023-01-06T16:48:06.256Z,7.20
2023-01-06T16:50:41.471Z,7.10
2023-01-06T16:53:22.785Z,7.20
2023-01-06T16:55:55.188Z,7.20
2023-01-06T16:58:29.944Z,7.20
2023-01-06T17:04:18.360Z,7.10
2023-01-06T17:06:46.320Z,7.10
2023-01-06T17:09:22.715Z,7.10
2023-01-06T17:12:08.697Z,7.10
2023-01-06T17:14:38.442Z,7.00
2023-01-06T17:17:22.177Z,7.00
2023-01-06T17:19:49.211Z,6.90
2023-01-06T17:22:26.796Z,6.90
2023-01-06T17:25:06.232Z,6.90
2023-01-06T17:27:33.631Z,6.80
2023-01-06T17:30:01.667Z,6.80
2023-01-06T17:32:37.591Z,6.80
2023-01-06T17:35:28.149Z,6.80
2023-01-06T17:38:02.139Z,6.80
2023-01-06T17:40:43.550Z,6.80
2023-01-06T17:43:27.190Z,6.80
2023-01-06T17:46:11.729Z,6.70
2023-01-06T17:48:44.022Z,6.70
2023-01-06T17:51:19.011Z,6.70
2023-01-06T17:54:48.684Z,6.70
2023-01-06T17:57:18.954Z,6.70
2023-01-06T17:59:46.549Z,6.60
2023-01-06T18:02:54.246Z,6.60
2023-01-06T18:05:22.200Z,6.60
2023-01-06T18:07:50.181Z,6.60
2023-01-06T18:10:22.195Z,6.60
2023-01-06T18:12:48.988Z,6.60
2023-01-06T18:15:36.009Z,6.50
2023-01-06T18:18:35.879Z,6.50
2023-01-06T18:21:23.537Z,6.50
2023-01-06T18:23:54.000Z,6.40
2023-01-06T18:26:50.809Z,6.40
2023-01-06T18:29:25.877Z,6.40
2023-01-06T18:32:28.075Z,6.40
2023-01-06T18:35:00.789Z,6.40
2023-01-06T18:37:31.469Z,6.40
2023-01-06T18:40:02.479Z,6.40
2023-01-06T18:42:36.006Z,6.40
2023-01-06T18:45:27.655Z,6.40
2023-01-06T18:51:22.006Z,6.40
2023-01-06T18:53:51.421Z,6.40
2023-01-06T18:59:15.075Z,6.40
2023-01-06T19:02:23.114Z,6.40
2023-01-06T19:08:21.370Z,6.40
2023-01-06T19:10:58.011Z,6.30
2023-01-06T19:13:27.810Z,6.30
2023-01-06T19:16:05.776Z,6.30
2023-01-06T19:18:45.844Z,6.30
2023-01-06T19:21:27.924Z,6.30
2023-01-06T19:23:54.804Z,6.20
2023-01-06T19:26:31.632Z,6.20
2023-01-06T19:29:02.001Z,6.20
2023-01-06T19:31:30.714Z,6.20
2023-01-06T19:37:10.181Z,6.20
2023-01-06T19:39:48.234Z,6.20
2023-01-06T19:42:24.519Z,6.30
2023-01-06T19:44:54.621Z,6.30
2023-01-06T19:47:26.483Z,6.40
2023-01-06T19:50:00.215Z,6.40
2023-01-06T19:52:35.596Z,6.40
2023-01-06T19:55:29.889Z,6.40
2023-01-06T19:58:18.212Z,6.40
2023-01-06T20:00:50.378Z,6.40
2023-01-06T20:06:29.993Z,6.50
2023-01-06T20:08:57.966Z,6.50
2023-01-06T20:14:11.993Z,6.40
2023-01-06T20:16:52.473Z,6.40
2023-01-06T20:19:21.559Z,6.40
2023-01-06T20:21:48.774Z,6.30
2023-01-06T20:24:22.376Z,6.30
2023-01-06T20:26:52.461Z,6.30
2023-01-06T20:29:27.927Z,6.20
2023-01-06T20:35:12.116Z,6.20
2023-01-06T20:37:40.096Z,6.20
2023-01-06T20:40:26.732Z,6.20
2023-01-06T20:43:31.884Z,6.20
2023-01-06T20:45:58.796Z,6.20
2023-01-06T20:48:25.931Z,6.20
2023-01-06T20:50:58.210Z,6.30
2023-01-06T20:53:25.876Z,6.40
2023-01-06T20:55:54.665Z,6.40
2023-01-06T20:58:27.757Z,6.50
2023-01-06T21:01:07.787Z,6.50
2023-01-06T21:03:34.822Z,6.50
2023-01-06T21:08:54.425Z,6.60
2023-01-06T21:11:21.498Z,6.70
2023-01-06T21:16:43.717Z,6.90
2023-01-06T21:19:10.682Z,6.90
2023-01-06T21:21:37.604Z,7.00
2023-01-06T21:24:05.219Z,7.00
2023-01-06T21:26:42.024Z,7.00
2023-01-06T21:29:10.103Z,7.10
2023-01-06T21:34:29.782Z,7.10
2023-01-06T21:37:05.752Z,7.20
2023-01-06T21:39:33.032Z,7.30
2023-01-06T21:42:23.641Z,7.30
2023-01-06T21:44:50.497Z,7.40
2023-01-06T21:47:17.911Z,7.50
2023-01-06T21:49:49.516Z,7.50
2023-01-06T21:52:17.093Z,7.60
2023-01-06T21:54:54.529Z,7.60
2023-01-06T21:57:25.922Z,7.70
2023-01-06T21:59:52.790Z,7.70
2023-01-06T22:02:19.791Z,7.80
2023-01-06T22:04:46.827Z,7.80
2023-01-06T22:07:14.446Z,7.90
2023-01-06T22:09:45.733Z,7.90
2023-01-06T22:12:14.643Z,8.00
2023-01-06T22:14:42.842Z,8.00
2023-01-06T22:17:12.948Z,8.10
2023-01-06T22:19:43.973Z,8.10
2023-01-06T22:22:10.857Z,8.10
2023-01-06T22:24:37.867Z,8.20
2023-01-06T22:27:04.700Z,8.20
2023-01-06T22:29:31.573Z,8.20
2023-01-06T22:32:05.703Z,8.30
2023-01-06T22:34:32.843Z,8.30
2023-01-06T22:36:59.952Z,8.40
2023-01-06T22:39:34.241Z,8.50
2023-01-06T22:42:06.882Z,8.60
2023-01-06T22:44:33.772Z,8.60
2023-01-06T22:47:00.824Z,8.70
2023-01-06T22:49:27.729Z,8.80
2023-01-06T22:51:54.570Z,8.90
2023-01-06T22:54:21.451Z,8.90
2023-01-06T22:56:48.279Z,9.00
2023-01-06T22:59:15.115Z,9.00
2023-01-06T23:01:42.169Z,9.10
2023-01-06T23:04:09.348Z,9.20
2023-01-06T23:06:36.231Z,9.20
2023-01-06T23:09:03.089Z,9.20
2023-01-06T23:11:31.383Z,9.20
2023-01-06T23:13:59.012Z,9.20
2023-01-06T23:16:27.093Z,9.20
2023-01-06T23:18:54.305Z,9.20
2023-01-06T23:21:26.639Z,9.30
2023-01-06T23:23:54.158Z,9.30
2023-01-06T23:26:27.403Z,9.30
2023-01-06T23:28:55.543Z,9.30
2023-01-06T23:31:25.430Z,9.30
2023-01-06T23:33:55.869Z,9.40
2023-01-06T23:36:24.306Z,9.40
2023-01-06T23:38:51.751Z,9.40
2023-01-06T23:41:21.865Z,9.40
2023-01-06T23:43:49.701Z,9.50
2023-01-06T23:46:19.791Z,9.50
2023-01-06T23:48:47.301Z,9.50
2023-01-06T23:51:15.607Z,9.50
2023-01-06T23:53:43.456Z,9.50
2023-01-06T23:56:13.313Z,9.50
2023-01-06T23:58:41.993Z,9.60
